^^
Saratoga-Weather Station Historical Data
Daily Summary for February 6, 2021 Units:  Both    English   Metric
Daily Weekly Monthly Yearly Custom
  High: Low: Average:
Temperature: 83.1 °F /  28.4 °C 55 °F /  12.8 °C 68.2 °F /  20.1 °C
Dew Point: 61.7 °F /  16.5 °C 53.4 °F /  11.9 °C 57.6 °F /  14.2 °C
Humidity: 96% 41% 72%
Wind Speed: 6mph /  9.7km/h - 0.6mph /  1km/h
Wind Gust: 7mph /  11.3km/h - -
Wind- - SSE
Pressure: 30.2 in /  1022.4 hPa 30.1 in /  1020.0 hPa -
Precipitation: 0 in /  0.0 mm    
Historical Graphs
 
 
Tabular Data for February 6, 2021
Time Temperature Dew Point Pressure Wind Wind Speed Wind Gust Humidity Rainfall Rate (Hourly) solar
00:00 62.1 °F /  16.7 °C 56.8 °F /  13.8 °C 30.1in /  1020.0hPa Calm   1mph /  1.6km/h 83% 0in /  0.0mm 0 W/m2
00:05 62.1 °F /  16.7 °C 57.2 °F /  14 °C 30.1in /  1020.0hPa Calm     84% 0in /  0.0mm 0 W/m2
00:10 61.9 °F /  16.6 °C 57 °F /  13.9 °C 30.1in /  1020.0hPa Calm     84% 0in /  0.0mm 0 W/m2
00:15 61.7 °F /  16.5 °C 56.8 °F /  13.8 °C 30.1in /  1020.0hPa Calm     84% 0in /  0.0mm 0 W/m2
00:20 61.5 °F /  16.4 °C 57 °F /  13.9 °C 30.1in /  1020.0hPa Calm     85% 0in /  0.0mm 0 W/m2
00:25 61.5 °F /  16.4 °C 57 °F /  13.9 °C 30.1in /  1020.0hPa Calm     85% 0in /  0.0mm 0 W/m2
00:30 61.3 °F /  16.3 °C 56.8 °F /  13.8 °C 30.1in /  1020.0hPa Calm     85% 0in /  0.0mm 0 W/m2
00:35 61.3 °F /  16.3 °C 56.8 °F /  13.8 °C 30.1in /  1020.0hPa Calm     85% 0in /  0.0mm 0 W/m2
00:40 61.2 °F /  16.2 °C 57 °F /  13.9 °C 30.1in /  1020.0hPa Calm     86% 0in /  0.0mm 0 W/m2
00:45 61 °F /  16.1 °C 56.8 °F /  13.8 °C 30.1in /  1020.0hPa Calm     86% 0in /  0.0mm 0 W/m2
00:50 61 °F /  16.1 °C 56.8 °F /  13.8 °C 30.1in /  1020.0hPa Calm     86% 0in /  0.0mm 0 W/m2
00:55 60.6 °F /  15.9 °C 56.5 °F /  13.6 °C 30.1in /  1020.3hPa Calm     86% 0in /  0.0mm 0 W/m2
01:01 60.6 °F /  15.9 °C 56.7 °F /  13.7 °C 30.1in /  1020.3hPa Calm     87% 0in /  0.0mm 0 W/m2
01:06 60.4 °F /  15.8 °C 56.5 °F /  13.6 °C 30.1in /  1020.3hPa Calm     87% 0in /  0.0mm 0 W/m2
01:11 60.4 °F /  15.8 °C 56.5 °F /  13.6 °C 30.1in /  1020.0hPa Calm     87% 0in /  0.0mm 0 W/m2
01:16 60.4 °F /  15.8 °C 56.5 °F /  13.6 °C 30.1in /  1020.0hPa Calm     87% 0in /  0.0mm 0 W/m2
01:21 60.3 °F /  15.7 °C 56.3 °F /  13.5 °C 30.1in /  1020.0hPa Calm     87% 0in /  0.0mm 0 W/m2
01:26 60.3 °F /  15.7 °C 56.7 °F /  13.7 °C 30.1in /  1020.0hPa Calm     88% 0in /  0.0mm 0 W/m2
01:31 60.1 °F /  15.6 °C 56.5 °F /  13.6 °C 30.1in /  1020.0hPa Calm     88% 0in /  0.0mm 0 W/m2
01:36 60.1 °F /  15.6 °C 56.5 °F /  13.6 °C 30.1in /  1020.3hPa Calm     88% 0in /  0.0mm 0 W/m2
01:41 59.7 °F /  15.4 °C 56.1 °F /  13.4 °C 30.1in /  1020.3hPa Calm     88% 0in /  0.0mm 0 W/m2
01:46 59.7 °F /  15.4 °C 56.1 °F /  13.4 °C 30.1in /  1020.3hPa Calm     88% 0in /  0.0mm 0 W/m2
01:51 59.5 °F /  15.3 °C 56.3 °F /  13.5 °C 30.1in /  1020.3hPa Calm     89% 0in /  0.0mm 0 W/m2
01:56 59.5 °F /  15.3 °C 56.3 °F /  13.5 °C 30.1in /  1020.3hPa Calm     89% 0in /  0.0mm 0 W/m2
02:01 59.4 °F /  15.2 °C 56.1 °F /  13.4 °C 30.1in /  1020.3hPa Calm     89% 0in /  0.0mm 0 W/m2
02:06 59.2 °F /  15.1 °C 55.9 °F /  13.3 °C 30.1in /  1020.3hPa Calm     89% 0in /  0.0mm 0 W/m2
02:11 59 °F /  15 °C 55.8 °F /  13.2 °C 30.1in /  1020.3hPa Calm     89% 0in /  0.0mm 0 W/m2
02:16 58.8 °F /  14.9 °C 55.6 °F /  13.1 °C 30.1in /  1020.3hPa Calm     89% 0in /  0.0mm 0 W/m2
02:21 58.6 °F /  14.8 °C 55.8 °F /  13.2 °C 30.1in /  1020.3hPa Calm     90% 0in /  0.0mm 0 W/m2
02:26 58.6 °F /  14.8 °C 55.8 °F /  13.2 °C 30.1in /  1020.3hPa Calm     90% 0in /  0.0mm 0 W/m2
02:31 58.5 °F /  14.7 °C 55.8 °F /  13.2 °C 30.1in /  1020.3hPa Calm     91% 0in /  0.0mm 0 W/m2
02:36 58.5 °F /  14.7 °C 55.6 °F /  13.1 °C 30.1in /  1020.3hPa Calm     90% 0in /  0.0mm 0 W/m2
02:41 58.3 °F /  14.6 °C 55.6 °F /  13.1 °C 30.1in /  1020.3hPa Calm     91% 0in /  0.0mm 0 W/m2
02:46 58.1 °F /  14.5 °C 55.4 °F /  13 °C 30.1in /  1020.3hPa Calm     91% 0in /  0.0mm 0 W/m2
02:51 57.9 °F /  14.4 °C 55.2 °F /  12.9 °C 30.1in /  1020.3hPa Calm     91% 0in /  0.0mm 0 W/m2
02:56 57.9 °F /  14.4 °C 55.2 °F /  12.9 °C 30.1in /  1020.3hPa Calm     91% 0in /  0.0mm 0 W/m2
03:01 57.7 °F /  14.3 °C 55.4 °F /  13 °C 30.1in /  1020.3hPa Calm     92% 0in /  0.0mm 0 W/m2
03:06 57.7 °F /  14.3 °C 55.4 °F /  13 °C 30.1in /  1020.3hPa Calm     92% 0in /  0.0mm 0 W/m2
03:11 57.6 °F /  14.2 °C 55.2 °F /  12.9 °C 30.1in /  1020.7hPa Calm     92% 0in /  0.0mm 0 W/m2
03:16 57.6 °F /  14.2 °C 55.2 °F /  12.9 °C 30.1in /  1020.7hPa Calm     92% 0in /  0.0mm 0 W/m2
03:21 57.6 °F /  14.2 °C 55.2 °F /  12.9 °C 30.1in /  1020.7hPa Calm     92% 0in /  0.0mm 0 W/m2
03:26 57.4 °F /  14.1 °C 55 °F /  12.8 °C 30.1in /  1020.7hPa Calm     92% 0in /  0.0mm 0 W/m2
03:31 57.4 °F /  14.1 °C 55 °F /  12.8 °C 30.1in /  1020.7hPa Calm     92% 0in /  0.0mm 0 W/m2
03:36 57.4 °F /  14.1 °C 55.4 °F /  13 °C 30.1in /  1020.7hPa Calm     93% 0in /  0.0mm 0 W/m2
03:41 57.2 °F /  14 °C 55.2 °F /  12.9 °C 30.1in /  1020.7hPa Calm     93% 0in /  0.0mm 0 W/m2
03:46 57.2 °F /  14 °C 55.2 °F /  12.9 °C 30.1in /  1020.7hPa Calm     93% 0in /  0.0mm 0 W/m2
03:51 57.2 °F /  14 °C 55.2 °F /  12.9 °C 30.1in /  1020.7hPa Calm     93% 0in /  0.0mm 0 W/m2
03:56 57.2 °F /  14 °C 55.2 °F /  12.9 °C 30.1in /  1020.7hPa Calm     93% 0in /  0.0mm 0 W/m2
04:01 57.2 °F /  14 °C 55.4 °F /  13 °C 30.1in /  1020.7hPa Calm     94% 0in /  0.0mm 0 W/m2
04:06 57.2 °F /  14 °C 55.2 °F /  12.9 °C 30.1in /  1020.7hPa Calm     93% 0in /  0.0mm 0 W/m2
04:11 57 °F /  13.9 °C 55 °F /  12.8 °C 30.1in /  1020.7hPa Calm     93% 0in /  0.0mm 0 W/m2
04:16 57 °F /  13.9 °C 55.2 °F /  12.9 °C 30.1in /  1020.7hPa Calm     94% 0in /  0.0mm 0 W/m2
04:21 57 °F /  13.9 °C 55.2 °F /  12.9 °C 30.1in /  1020.7hPa Calm     94% 0in /  0.0mm 0 W/m2
04:26 57 °F /  13.9 °C 55.2 °F /  12.9 °C 30.1in /  1020.7hPa Calm     94% 0in /  0.0mm 0 W/m2
04:31 57 °F /  13.9 °C 55.2 °F /  12.9 °C 30.1in /  1020.7hPa Calm     94% 0in /  0.0mm 0 W/m2
04:36 57 °F /  13.9 °C 55.2 °F /  12.9 °C 30.1in /  1020.7hPa Calm     94% 0in /  0.0mm 0 W/m2
04:41 56.8 °F /  13.8 °C 55.2 °F /  12.9 °C 30.1in /  1020.7hPa Calm     94% 0in /  0.0mm 0 W/m2
04:46 56.8 °F /  13.8 °C 55.2 °F /  12.9 °C 30.1in /  1020.7hPa Calm     94% 0in /  0.0mm 0 W/m2
04:51 56.8 °F /  13.8 °C 55.2 °F /  12.9 °C 30.1in /  1020.7hPa Calm     94% 0in /  0.0mm 0 W/m2
04:56 56.8 °F /  13.8 °C 55.2 °F /  12.9 °C 30.1in /  1020.7hPa Calm     94% 0in /  0.0mm 0 W/m2
05:01 56.7 °F /  13.7 °C 55 °F /  12.8 °C 30.1in /  1020.7hPa Calm     94% 0in /  0.0mm 0 W/m2
05:06 56.7 °F /  13.7 °C 55 °F /  12.8 °C 30.1in /  1020.7hPa Calm     94% 0in /  0.0mm 0 W/m2
05:11 56.7 °F /  13.7 °C 55 °F /  12.8 °C 30.1in /  1020.7hPa Calm     94% 0in /  0.0mm 0 W/m2
05:16 56.7 °F /  13.7 °C 55 °F /  12.8 °C 30.1in /  1020.7hPa Calm     94% 0in /  0.0mm 0 W/m2
05:21 56.7 °F /  13.7 °C 55 °F /  12.8 °C 30.1in /  1020.7hPa Calm     94% 0in /  0.0mm 0 W/m2
05:26 56.5 °F /  13.6 °C 54.9 °F /  12.7 °C 30.1in /  1020.3hPa Calm     94% 0in /  0.0mm 0 W/m2
05:31 56.5 °F /  13.6 °C 54.9 °F /  12.7 °C 30.1in /  1020.7hPa Calm     94% 0in /  0.0mm 0 W/m2
05:36 56.5 °F /  13.6 °C 54.9 °F /  12.7 °C 30.1in /  1020.3hPa Calm     94% 0in /  0.0mm 0 W/m2
05:41 56.3 °F /  13.5 °C 54.7 °F /  12.6 °C 30.1in /  1020.3hPa Calm     94% 0in /  0.0mm 0 W/m2
05:46 56.1 °F /  13.4 °C 54.5 °F /  12.5 °C 30.1in /  1020.3hPa Calm     94% 0in /  0.0mm 0 W/m2
05:51 56.1 °F /  13.4 °C 54.5 °F /  12.5 °C 30.1in /  1020.3hPa Calm     94% 0in /  0.0mm 0 W/m2
05:56 56.1 °F /  13.4 °C 54.5 °F /  12.5 °C 30.1in /  1020.3hPa Calm     94% 0in /  0.0mm 0 W/m2
06:01 56.1 °F /  13.4 °C 54.5 °F /  12.5 °C 30.1in /  1020.3hPa Calm     94% 0in /  0.0mm 0 W/m2
06:06 56.1 °F /  13.4 °C 54.5 °F /  12.5 °C 30.1in /  1020.3hPa Calm     94% 0in /  0.0mm 0 W/m2
06:11 55.9 °F /  13.3 °C 54.3 °F /  12.4 °C 30.1in /  1020.3hPa Calm     94% 0in /  0.0mm 0 W/m2
06:17 55.9 °F /  13.3 °C 54.3 °F /  12.4 °C 30.1in /  1020.7hPa Calm     94% 0in /  0.0mm 0 W/m2
06:22 55.9 °F /  13.3 °C 54.3 °F /  12.4 °C 30.1in /  1020.7hPa Calm     94% 0in /  0.0mm 0 W/m2
06:27 55.8 °F /  13.2 °C 54.1 °F /  12.3 °C 30.1in /  1020.7hPa Calm     94% 0in /  0.0mm 0 W/m2
06:32 55.8 °F /  13.2 °C 54.1 °F /  12.3 °C 30.1in /  1020.7hPa Calm     94% 0in /  0.0mm 0 W/m2
06:37 55.6 °F /  13.1 °C 54 °F /  12.2 °C 30.1in /  1020.7hPa Calm     94% 0in /  0.0mm 0 W/m2
06:42 55.6 °F /  13.1 °C 54 °F /  12.2 °C 30.1in /  1020.7hPa Calm     94% 0in /  0.0mm 0 W/m2
06:47 55.4 °F /  13 °C 53.8 °F /  12.1 °C 30.1in /  1020.7hPa Calm     94% 0in /  0.0mm 0 W/m2
06:52 55.2 °F /  12.9 °C 53.6 °F /  12 °C 30.1in /  1020.7hPa Calm     94% 0in /  0.0mm 0 W/m2
06:57 55.2 °F /  12.9 °C 53.6 °F /  12 °C 30.1in /  1020.7hPa Calm     94% 0in /  0.0mm 0 W/m2
07:02 55 °F /  12.8 °C 53.4 °F /  11.9 °C 30.1in /  1020.7hPa Calm     94% 0in /  0.0mm 5 W/m2
07:07 55 °F /  12.8 °C 53.6 °F /  12 °C 30.1in /  1020.7hPa Calm     95% 0in /  0.0mm 5 W/m2
07:12 55 °F /  12.8 °C 53.6 °F /  12 °C 30.2in /  1021.0hPa Calm     95% 0in /  0.0mm 9 W/m2
07:17 55 °F /  12.8 °C 53.6 °F /  12 °C 30.2in /  1021.0hPa Calm     95% 0in /  0.0mm 11 W/m2
07:22 55 °F /  12.8 °C 53.6 °F /  12 °C 30.2in /  1021.0hPa South 0.9mph /  1.4km/h 1mph /  1.6km/h 95% 0in /  0.0mm 12 W/m2
07:27 55.2 °F /  12.9 °C 53.8 °F /  12.1 °C 30.2in /  1021.0hPa Calm     95% 0in /  0.0mm 14 W/m2
07:32 55.2 °F /  12.9 °C 53.8 °F /  12.1 °C 30.2in /  1021.0hPa Calm     95% 0in /  0.0mm 16 W/m2
07:37 55.2 °F /  12.9 °C 53.8 °F /  12.1 °C 30.2in /  1021.3hPa Calm     95% 0in /  0.0mm 19 W/m2
07:42 55.2 °F /  12.9 °C 53.8 °F /  12.1 °C 30.2in /  1021.3hPa Calm     95% 0in /  0.0mm 21 W/m2
07:47 55.4 °F /  13 °C 54 °F /  12.2 °C 30.2in /  1021.3hPa Calm     95% 0in /  0.0mm 23 W/m2
07:52 55.6 °F /  13.1 °C 54.1 °F /  12.3 °C 30.2in /  1021.3hPa Calm     95% 0in /  0.0mm 25 W/m2
07:57 55.6 °F /  13.1 °C 54.1 °F /  12.3 °C 30.2in /  1021.3hPa Calm     95% 0in /  0.0mm 26 W/m2
08:02 55.8 °F /  13.2 °C 54.3 °F /  12.4 °C 30.2in /  1021.3hPa Calm   1mph /  1.6km/h 95% 0in /  0.0mm 28 W/m2
08:07 55.9 °F /  13.3 °C 54.9 °F /  12.7 °C 30.2in /  1021.3hPa Calm     96% 0in /  0.0mm 30 W/m2
08:12 56.1 °F /  13.4 °C 55 °F /  12.8 °C 30.2in /  1021.3hPa Calm   1mph /  1.6km/h 96% 0in /  0.0mm 33 W/m2
08:17 56.3 °F /  13.5 °C 55.2 °F /  12.9 °C 30.2in /  1021.3hPa Calm     96% 0in /  0.0mm 84 W/m2
08:22 56.7 °F /  13.7 °C 55.6 °F /  13.1 °C 30.2in /  1021.3hPa Calm     96% 0in /  0.0mm 111 W/m2
08:27 57 °F /  13.9 °C 55.9 °F /  13.3 °C 30.2in /  1021.3hPa Calm     96% 0in /  0.0mm 123 W/m2
08:32 57.6 °F /  14.2 °C 56.5 °F /  13.6 °C 30.2in /  1021.3hPa Calm     96% 0in /  0.0mm 141 W/m2
08:37 57.9 °F /  14.4 °C 56.8 °F /  13.8 °C 30.2in /  1021.3hPa Calm   1mph /  1.6km/h 96% 0in /  0.0mm 153 W/m2
08:42 58.5 °F /  14.7 °C 57.4 °F /  14.1 °C 30.2in /  1021.3hPa Calm     96% 0in /  0.0mm 171 W/m2
08:47 58.8 °F /  14.9 °C 57.7 °F /  14.3 °C 30.2in /  1021.3hPa Calm     96% 0in /  0.0mm 183 W/m2
08:52 59.5 °F /  15.3 °C 58.5 °F /  14.7 °C 30.2in /  1021.3hPa Calm   1mph /  1.6km/h 96% 0in /  0.0mm 197 W/m2
08:57 60.1 °F /  15.6 °C 58.6 °F /  14.8 °C 30.2in /  1021.7hPa Calm   2mph /  3.2km/h 95% 0in /  0.0mm 216 W/m2
09:02 60.8 °F /  16 °C 59 °F /  15 °C 30.2in /  1021.7hPa Calm   1mph /  1.6km/h 94% 0in /  0.0mm 47 W/m2
09:07 61.5 °F /  16.4 °C 59.5 °F /  15.3 °C 30.2in /  1021.7hPa East 2mph /  3.2km/h 2mph /  3.2km/h 93% 0in /  0.0mm 47 W/m2
09:12 62.2 °F /  16.8 °C 59.2 °F /  15.1 °C 30.2in /  1021.7hPa Calm   1mph /  1.6km/h 90% 0in /  0.0mm 257 W/m2
09:17 63 °F /  17.2 °C 59 °F /  15 °C 30.2in /  1021.7hPa Calm   1mph /  1.6km/h 87% 0in /  0.0mm 271 W/m2
09:22 63.5 °F /  17.5 °C 58.8 °F /  14.9 °C 30.2in /  1021.7hPa Calm     85% 0in /  0.0mm 287 W/m2
09:27 64 °F /  17.8 °C 58.8 °F /  14.9 °C 30.2in /  1022.0hPa Calm     83% 0in /  0.0mm 301 W/m2
09:32 64.8 °F /  18.2 °C 59.2 °F /  15.1 °C 30.2in /  1022.0hPa Calm   2mph /  3.2km/h 82% 0in /  0.0mm 318 W/m2
09:37 65.1 °F /  18.4 °C 58.8 °F /  14.9 °C 30.2in /  1022.0hPa Calm     80% 0in /  0.0mm 329 W/m2
09:42 65.7 °F /  18.7 °C 59.4 °F /  15.2 °C 30.2in /  1022.0hPa Calm   1mph /  1.6km/h 80% 0in /  0.0mm 346 W/m2
09:47 66 °F /  18.9 °C 59.4 °F /  15.2 °C 30.2in /  1022.0hPa Calm     79% 0in /  0.0mm 359 W/m2
09:52 66.6 °F /  19.2 °C 59.9 °F /  15.5 °C 30.2in /  1022.0hPa Calm     79% 0in /  0.0mm 371 W/m2
09:57 67.1 °F /  19.5 °C 60.1 °F /  15.6 °C 30.2in /  1022.0hPa Calm     78% 0in /  0.0mm 385 W/m2
10:02 67.6 °F /  19.8 °C 60.3 °F /  15.7 °C 30.2in /  1022.0hPa Calm   2mph /  3.2km/h 77% 0in /  0.0mm 397 W/m2
10:07 68.2 °F /  20.1 °C 60.3 °F /  15.7 °C 30.2in /  1022.0hPa Calm     76% 0in /  0.0mm 410 W/m2
10:12 68.4 °F /  20.2 °C 60.1 °F /  15.6 °C 30.2in /  1022.0hPa Calm   2mph /  3.2km/h 75% 0in /  0.0mm 424 W/m2
10:17 68.5 °F /  20.3 °C 59.9 °F /  15.5 °C 30.2in /  1022.4hPa NE 0.9mph /  1.4km/h 1mph /  1.6km/h 74% 0in /  0.0mm 436 W/m2
10:22 69.1 °F /  20.6 °C 60.8 °F /  16 °C 30.2in /  1022.4hPa East 0.9mph /  1.4km/h 2mph /  3.2km/h 75% 0in /  0.0mm 452 W/m2
10:27 69.4 °F /  20.8 °C 60.8 °F /  16 °C 30.2in /  1022.4hPa Calm   3mph /  4.8km/h 74% 0in /  0.0mm 464 W/m2
10:32 70.2 °F /  21.2 °C 61.5 °F /  16.4 °C 30.2in /  1022.0hPa East 0.9mph /  1.4km/h 3mph /  4.8km/h 74% 0in /  0.0mm 478 W/m2
10:37 70.3 °F /  21.3 °C 60.4 °F /  15.8 °C 30.2in /  1022.0hPa East 2mph /  3.2km/h 2mph /  3.2km/h 71% 0in /  0.0mm 487 W/m2
10:42 70.7 °F /  21.5 °C 60.8 °F /  16 °C 30.2in /  1022.4hPa Calm   2mph /  3.2km/h 71% 0in /  0.0mm 501 W/m2
10:47 70.9 °F /  21.6 °C 60.6 °F /  15.9 °C 30.2in /  1022.0hPa NE 0.9mph /  1.4km/h 2mph /  3.2km/h 70% 0in /  0.0mm 510 W/m2
10:52 71.2 °F /  21.8 °C 60.6 °F /  15.9 °C 30.2in /  1022.0hPa ENE 2mph /  3.2km/h 2mph /  3.2km/h 69% 0in /  0.0mm 524 W/m2
10:57 71.4 °F /  21.9 °C 60.3 °F /  15.7 °C 30.2in /  1022.4hPa NE 0.9mph /  1.4km/h 2mph /  3.2km/h 68% 0in /  0.0mm 533 W/m2
11:02 71.8 °F /  22.1 °C 60.3 °F /  15.7 °C 30.2in /  1022.4hPa Calm   1mph /  1.6km/h 67% 0in /  0.0mm 541 W/m2
11:07 72 °F /  22.2 °C 59.9 °F /  15.5 °C 30.2in /  1022.0hPa Calm   2mph /  3.2km/h 66% 0in /  0.0mm 554 W/m2
11:12 72.3 °F /  22.4 °C 60.8 °F /  16 °C 30.2in /  1022.4hPa SE 2.9mph /  4.7km/h 3mph /  4.8km/h 67% 0in /  0.0mm 566 W/m2
11:17 72.7 °F /  22.6 °C 61.2 °F /  16.2 °C 30.2in /  1022.4hPa Calm   1mph /  1.6km/h 67% 0in /  0.0mm 573 W/m2
11:22 73 °F /  22.8 °C 60.1 °F /  15.6 °C 30.2in /  1022.4hPa NNW 2.9mph /  4.7km/h 4mph /  6.4km/h 64% 0in /  0.0mm 585 W/m2
11:27 72.9 °F /  22.7 °C 59.9 °F /  15.5 °C 30.2in /  1022.4hPa NNE 0.9mph /  1.4km/h 2mph /  3.2km/h 64% 0in /  0.0mm 594 W/m2
11:32 73.2 °F /  22.9 °C 61.2 °F /  16.2 °C 30.2in /  1022.4hPa East 0.9mph /  1.4km/h 3mph /  4.8km/h 66% 0in /  0.0mm 603 W/m2
11:37 73.8 °F /  23.2 °C 60.8 °F /  16 °C 30.2in /  1022.4hPa East 4mph /  6.4km/h 6mph /  9.7km/h 64% 0in /  0.0mm 608 W/m2
11:42 74.3 °F /  23.5 °C 60.4 °F /  15.8 °C 30.2in /  1022.4hPa Calm   2mph /  3.2km/h 62% 0in /  0.0mm 617 W/m2
11:47 74.7 °F /  23.7 °C 61.2 °F /  16.2 °C 30.2in /  1022.4hPa SE 2mph /  3.2km/h 6mph /  9.7km/h 63% 0in /  0.0mm 626 W/m2
11:52 75.4 °F /  24.1 °C 61 °F /  16.1 °C 30.2in /  1022.4hPa East 0.9mph /  1.4km/h 3mph /  4.8km/h 61% 0in /  0.0mm 636 W/m2
11:57 75.7 °F /  24.3 °C 60.8 °F /  16 °C 30.2in /  1022.4hPa SE 2mph /  3.2km/h 3mph /  4.8km/h 60% 0in /  0.0mm 642 W/m2
12:02 76.3 °F /  24.6 °C 60.4 °F /  15.8 °C 30.2in /  1022.4hPa ESE 2.9mph /  4.7km/h 4mph /  6.4km/h 58% 0in /  0.0mm 650 W/m2
12:07 76.6 °F /  24.8 °C 59.7 °F /  15.4 °C 30.2in /  1022.4hPa SSE 2.9mph /  4.7km/h 3mph /  4.8km/h 56% 0in /  0.0mm 659 W/m2
12:12 77 °F /  25 °C 60.6 °F /  15.9 °C 30.2in /  1022.4hPa Calm   3mph /  4.8km/h 57% 0in /  0.0mm 666 W/m2
12:17 77.4 °F /  25.2 °C 61 °F /  16.1 °C 30.2in /  1022.4hPa SSW 0.9mph /  1.4km/h 2mph /  3.2km/h 57% 0in /  0.0mm 673 W/m2
12:22 77.7 °F /  25.4 °C 60.8 °F /  16 °C 30.2in /  1022.4hPa SE 0.9mph /  1.4km/h 3mph /  4.8km/h 56% 0in /  0.0mm 680 W/m2
12:28 78.1 °F /  25.6 °C 60.6 °F /  15.9 °C 30.2in /  1022.0hPa NNW 0.9mph /  1.4km/h 2mph /  3.2km/h 55% 0in /  0.0mm 687 W/m2
12:33 78.4 °F /  25.8 °C 61 °F /  16.1 °C 30.2in /  1022.0hPa NE 0.9mph /  1.4km/h 3mph /  4.8km/h 55% 0in /  0.0mm 693 W/m2
12:38 78.8 °F /  26 °C 61.7 °F /  16.5 °C 30.2in /  1022.0hPa ESE 4mph /  6.4km/h 4mph /  6.4km/h 56% 0in /  0.0mm 696 W/m2
12:43 79 °F /  26.1 °C 61.5 °F /  16.4 °C 30.2in /  1022.0hPa NE 0.9mph /  1.4km/h 2mph /  3.2km/h 55% 0in /  0.0mm 703 W/m2
12:48 79.3 °F /  26.3 °C 60.3 °F /  15.7 °C 30.2in /  1022.0hPa NNE 2.9mph /  4.7km/h 5mph /  8km/h 52% 0in /  0.0mm 705 W/m2
12:53 79.3 °F /  26.3 °C 60.3 °F /  15.7 °C 30.2in /  1022.0hPa WSW 2mph /  3.2km/h 2mph /  3.2km/h 52% 0in /  0.0mm 691 W/m2
12:58 79.3 °F /  26.3 °C 59.7 °F /  15.4 °C 30.2in /  1022.0hPa NNW 0.9mph /  1.4km/h 5mph /  8km/h 51% 0in /  0.0mm 682 W/m2
13:03 79.5 °F /  26.4 °C 60.4 °F /  15.8 °C 30.2in /  1021.7hPa SSW 0.9mph /  1.4km/h 3mph /  4.8km/h 52% 0in /  0.0mm 700 W/m2
13:08 79.5 °F /  26.4 °C 59.7 °F /  15.4 °C 30.2in /  1021.7hPa ENE 2mph /  3.2km/h 5mph /  8km/h 51% 0in /  0.0mm 719 W/m2
13:13 79.7 °F /  26.5 °C 59.9 °F /  15.5 °C 30.2in /  1021.7hPa NNW 2.9mph /  4.7km/h 3mph /  4.8km/h 51% 0in /  0.0mm 721 W/m2
13:18 80.1 °F /  26.7 °C 60.8 °F /  16 °C 30.2in /  1021.7hPa Calm   1mph /  1.6km/h 52% 0in /  0.0mm 724 W/m2
13:23 80.4 °F /  26.9 °C 60.1 °F /  15.6 °C 30.2in /  1021.7hPa East 2.9mph /  4.7km/h 6mph /  9.7km/h 50% 0in /  0.0mm 729 W/m2
13:28 81 °F /  27.2 °C 59.4 °F /  15.2 °C 30.2in /  1021.7hPa NE 0.9mph /  1.4km/h 3mph /  4.8km/h 48% 0in /  0.0mm 717 W/m2
13:33 81.1 °F /  27.3 °C 59 °F /  15 °C 30.2in /  1021.7hPa ENE 2mph /  3.2km/h 6mph /  9.7km/h 47% 0in /  0.0mm 722 W/m2
13:38 81.1 °F /  27.3 °C 57.2 °F /  14 °C 30.2in /  1021.7hPa Calm   3mph /  4.8km/h 44% 0in /  0.0mm 724 W/m2
13:43 81.1 °F /  27.3 °C 56.5 °F /  13.6 °C 30.2in /  1021.7hPa NNW 0.9mph /  1.4km/h 3mph /  4.8km/h 43% 0in /  0.0mm 721 W/m2
13:48 81.3 °F /  27.4 °C 57.9 °F /  14.4 °C 30.2in /  1021.7hPa ESE 2.9mph /  4.7km/h 6mph /  9.7km/h 45% 0in /  0.0mm 733 W/m2
13:53 81.1 °F /  27.3 °C 59 °F /  15 °C 30.2in /  1021.7hPa ESE 0.9mph /  1.4km/h 1mph /  1.6km/h 47% 0in /  0.0mm 731 W/m2
13:58 81.1 °F /  27.3 °C 59 °F /  15 °C 30.2in /  1021.7hPa East 2mph /  3.2km/h 4mph /  6.4km/h 47% 0in /  0.0mm 726 W/m2
14:03 81.3 °F /  27.4 °C 57.4 °F /  14.1 °C 30.2in /  1021.7hPa East 2.9mph /  4.7km/h 4mph /  6.4km/h 44% 0in /  0.0mm 733 W/m2
14:08 81.3 °F /  27.4 °C 58.6 °F /  14.8 °C 30.2in /  1021.7hPa Calm   2mph /  3.2km/h 46% 0in /  0.0mm 722 W/m2
14:13 81.7 °F /  27.6 °C 58.8 °F /  14.9 °C 30.2in /  1021.3hPa NNW 2mph /  3.2km/h 3mph /  4.8km/h 46% 0in /  0.0mm 728 W/m2
14:18 81.9 °F /  27.7 °C 59 °F /  15 °C 30.2in /  1021.3hPa ENE 2mph /  3.2km/h 4mph /  6.4km/h 46% 0in /  0.0mm 673 W/m2
14:23 81.9 °F /  27.7 °C 57.7 °F /  14.3 °C 30.2in /  1021.7hPa NE 2.9mph /  4.7km/h 6mph /  9.7km/h 44% 0in /  0.0mm 652 W/m2
14:28 81.9 °F /  27.7 °C 59.7 °F /  15.4 °C 30.2in /  1021.7hPa ESE 0.9mph /  1.4km/h 3mph /  4.8km/h 47% 0in /  0.0mm 661 W/m2
14:33 81.9 °F /  27.7 °C 59.7 °F /  15.4 °C 30.2in /  1021.7hPa ENE 2mph /  3.2km/h 6mph /  9.7km/h 47% 0in /  0.0mm 664 W/m2
14:38 81.7 °F /  27.6 °C 60.1 °F /  15.6 °C 30.2in /  1021.7hPa SE 0.9mph /  1.4km/h 2mph /  3.2km/h 48% 0in /  0.0mm 666 W/m2
14:43 82 °F /  27.8 °C 59.2 °F /  15.1 °C 30.2in /  1021.7hPa NE 2mph /  3.2km/h 4mph /  6.4km/h 46% 0in /  0.0mm 650 W/m2
14:48 81.7 °F /  27.6 °C 58.8 °F /  14.9 °C 30.2in /  1021.7hPa NE 6mph /  9.7km/h 7mph /  11.3km/h 46% 0in /  0.0mm 127 W/m2
14:53 81.1 °F /  27.3 °C 58.5 °F /  14.7 °C 30.2in /  1021.7hPa NE 0.9mph /  1.4km/h 4mph /  6.4km/h 46% 0in /  0.0mm 733 W/m2
14:58 81.1 °F /  27.3 °C 58.5 °F /  14.7 °C 30.2in /  1021.7hPa SSE 0.9mph /  1.4km/h 4mph /  6.4km/h 46% 0in /  0.0mm 132 W/m2
15:03 81 °F /  27.2 °C 58.3 °F /  14.6 °C 30.2in /  1021.3hPa North 0.9mph /  1.4km/h 1mph /  1.6km/h 46% 0in /  0.0mm 125 W/m2
15:08 80.2 °F /  26.8 °C 59.9 °F /  15.5 °C 30.2in /  1021.3hPa West 0.9mph /  1.4km/h 4mph /  6.4km/h 50% 0in /  0.0mm 204 W/m2
15:13 80.1 °F /  26.7 °C 60.3 °F /  15.7 °C 30.2in /  1021.3hPa WSW 0.9mph /  1.4km/h 2mph /  3.2km/h 51% 0in /  0.0mm 580 W/m2
15:18 80.4 °F /  26.9 °C 57.7 °F /  14.3 °C 30.2in /  1021.3hPa ESE 0.9mph /  1.4km/h 2mph /  3.2km/h 46% 0in /  0.0mm 561 W/m2
15:23 81 °F /  27.2 °C 58.3 °F /  14.6 °C 30.2in /  1021.3hPa Calm   3mph /  4.8km/h 46% 0in /  0.0mm 594 W/m2
15:28 81.1 °F /  27.3 °C 58.5 °F /  14.7 °C 30.2in /  1021.3hPa ENE 2.9mph /  4.7km/h 3mph /  4.8km/h 46% 0in /  0.0mm 661 W/m2
15:33 81.3 °F /  27.4 °C 58.6 °F /  14.8 °C 30.2in /  1021.3hPa ENE 0.9mph /  1.4km/h 2mph /  3.2km/h 46% 0in /  0.0mm 705 W/m2
15:38 81.9 °F /  27.7 °C 57.7 °F /  14.3 °C 30.2in /  1021.3hPa NNW 0.9mph /  1.4km/h 3mph /  4.8km/h 44% 0in /  0.0mm 705 W/m2
15:43 82.2 °F /  27.9 °C 58.1 °F /  14.5 °C 30.2in /  1021.3hPa Calm   2mph /  3.2km/h 44% 0in /  0.0mm 642 W/m2
15:48 82.9 °F /  28.3 °C 58.1 °F /  14.5 °C 30.2in /  1021.3hPa East 2mph /  3.2km/h 2mph /  3.2km/h 43% 0in /  0.0mm 584 W/m2
15:53 83.1 °F /  28.4 °C 57.6 °F /  14.2 °C 30.2in /  1021.3hPa ENE 4mph /  6.4km/h 7mph /  11.3km/h 42% 0in /  0.0mm 279 W/m2
15:58 82.6 °F /  28.1 °C 56.5 °F /  13.6 °C 30.2in /  1021.3hPa SE 2.9mph /  4.7km/h 3mph /  4.8km/h 41% 0in /  0.0mm 185 W/m2
16:03 82 °F /  27.8 °C 56.7 °F /  13.7 °C 30.2in /  1021.3hPa NNW 0.9mph /  1.4km/h 2mph /  3.2km/h 42% 0in /  0.0mm 158 W/m2
16:08 81.7 °F /  27.6 °C 57 °F /  13.9 °C 30.2in /  1021.3hPa Calm   1mph /  1.6km/h 43% 0in /  0.0mm 158 W/m2
16:13 81.3 °F /  27.4 °C 56.1 °F /  13.4 °C 30.2in /  1021.3hPa NE 2.9mph /  4.7km/h 4mph /  6.4km/h 42% 0in /  0.0mm 469 W/m2
16:18 81.3 °F /  27.4 °C 56.7 °F /  13.7 °C 30.2in /  1021.3hPa NNE 2mph /  3.2km/h 2mph /  3.2km/h 43% 0in /  0.0mm 452 W/m2
16:23 81.5 °F /  27.5 °C 56.8 °F /  13.8 °C 30.2in /  1021.3hPa ENE 0.9mph /  1.4km/h 4mph /  6.4km/h 43% 0in /  0.0mm 387 W/m2
16:28 81.7 °F /  27.6 °C 57.6 °F /  14.2 °C 30.2in /  1021.3hPa Calm     44% 0in /  0.0mm 446 W/m2
16:33 81.9 °F /  27.7 °C 59 °F /  15 °C 30.2in /  1021.0hPa WNW 2mph /  3.2km/h 5mph /  8km/h 46% 0in /  0.0mm 471 W/m2
16:38 81.9 °F /  27.7 °C 57.7 °F /  14.3 °C 30.2in /  1021.0hPa West 2mph /  3.2km/h 3mph /  4.8km/h 44% 0in /  0.0mm 415 W/m2
16:43 81.9 °F /  27.7 °C 57.7 °F /  14.3 °C 30.2in /  1021.0hPa NNW 2.9mph /  4.7km/h 7mph /  11.3km/h 44% 0in /  0.0mm 396 W/m2
16:48 82 °F /  27.8 °C 56.7 °F /  13.7 °C 30.2in /  1021.0hPa NNW 0.9mph /  1.4km/h 5mph /  8km/h 42% 0in /  0.0mm 396 W/m2
16:53 82 °F /  27.8 °C 55.9 °F /  13.3 °C 30.2in /  1021.0hPa NE 0.9mph /  1.4km/h 3mph /  4.8km/h 41% 0in /  0.0mm 258 W/m2
16:58 82 °F /  27.8 °C 57.4 °F /  14.1 °C 30.2in /  1021.0hPa NNW 0.9mph /  1.4km/h 5mph /  8km/h 43% 0in /  0.0mm 248 W/m2
17:03 81.9 °F /  27.7 °C 56.5 °F /  13.6 °C 30.2in /  1021.0hPa East 2mph /  3.2km/h 4mph /  6.4km/h 42% 0in /  0.0mm 336 W/m2
17:08 81.9 °F /  27.7 °C 57.2 °F /  14 °C 30.2in /  1021.0hPa NW 0.9mph /  1.4km/h 3mph /  4.8km/h 43% 0in /  0.0mm 346 W/m2
17:13 81.9 °F /  27.7 °C 56.5 °F /  13.6 °C 30.2in /  1021.0hPa NE 0.9mph /  1.4km/h 4mph /  6.4km/h 42% 0in /  0.0mm 292 W/m2
17:18 81.7 °F /  27.6 °C 58.8 °F /  14.9 °C 30.2in /  1021.0hPa West 2.9mph /  4.7km/h 3mph /  4.8km/h 46% 0in /  0.0mm 320 W/m2
17:23 81.5 °F /  27.5 °C 57.6 °F /  14.2 °C 30.2in /  1021.0hPa WNW 2.9mph /  4.7km/h 3mph /  4.8km/h 44% 0in /  0.0mm 306 W/m2
17:28 81.3 °F /  27.4 °C 57.9 °F /  14.4 °C 30.2in /  1021.0hPa NW 0.9mph /  1.4km/h 3mph /  4.8km/h 45% 0in /  0.0mm 294 W/m2
17:33 81.3 °F /  27.4 °C 57.4 °F /  14.1 °C 30.2in /  1021.0hPa ENE 2.9mph /  4.7km/h 5mph /  8km/h 44% 0in /  0.0mm 297 W/m2
17:38 81.3 °F /  27.4 °C 56.7 °F /  13.7 °C 30.2in /  1021.0hPa Calm   4mph /  6.4km/h 43% 0in /  0.0mm 302 W/m2
17:43 81.3 °F /  27.4 °C 59.7 °F /  15.4 °C 30.1in /  1020.7hPa NNW 0.9mph /  1.4km/h 5mph /  8km/h 48% 0in /  0.0mm 246 W/m2
17:48 81.1 °F /  27.3 °C 57.2 °F /  14 °C 30.2in /  1021.0hPa Calm   1mph /  1.6km/h 44% 0in /  0.0mm 285 W/m2
17:53 81.1 °F /  27.3 °C 57.2 °F /  14 °C 30.2in /  1021.0hPa ENE 2mph /  3.2km/h 2mph /  3.2km/h 44% 0in /  0.0mm 272 W/m2
17:58 81.1 °F /  27.3 °C 56.5 °F /  13.6 °C 30.2in /  1021.0hPa ENE 4mph /  6.4km/h 5mph /  8km/h 43% 0in /  0.0mm 257 W/m2
18:04 81.1 °F /  27.3 °C 57.7 °F /  14.3 °C 30.2in /  1021.0hPa SE 0.9mph /  1.4km/h 2mph /  3.2km/h 45% 0in /  0.0mm 190 W/m2
18:09 81 °F /  27.2 °C 57.6 °F /  14.2 °C 30.2in /  1021.0hPa Calm   4mph /  6.4km/h 45% 0in /  0.0mm 156 W/m2
18:14 80.4 °F /  26.9 °C 56.5 °F /  13.6 °C 30.2in /  1021.0hPa NNE 0.9mph /  1.4km/h 2mph /  3.2km/h 44% 0in /  0.0mm 155 W/m2
18:19 80.4 °F /  26.9 °C 57.7 °F /  14.3 °C 30.2in /  1021.0hPa Calm   1mph /  1.6km/h 46% 0in /  0.0mm 169 W/m2
18:24 80.2 °F /  26.8 °C 58.1 °F /  14.5 °C 30.2in /  1021.0hPa SE 0.9mph /  1.4km/h 4mph /  6.4km/h 47% 0in /  0.0mm 218 W/m2
18:29 80.2 °F /  26.8 °C 58.1 °F /  14.5 °C 30.2in /  1021.0hPa West 0.9mph /  1.4km/h 3mph /  4.8km/h 47% 0in /  0.0mm 204 W/m2
18:34 80.2 °F /  26.8 °C 58.8 °F /  14.9 °C 30.2in /  1021.0hPa East 2mph /  3.2km/h 4mph /  6.4km/h 48% 0in /  0.0mm 190 W/m2
18:39 80.2 °F /  26.8 °C 58.1 °F /  14.5 °C 30.2in /  1021.0hPa East 0.9mph /  1.4km/h 2mph /  3.2km/h 47% 0in /  0.0mm 211 W/m2
18:44 80.1 °F /  26.7 °C 58.1 °F /  14.5 °C 30.2in /  1021.0hPa East 2.9mph /  4.7km/h 4mph /  6.4km/h 47% 0in /  0.0mm 165 W/m2
18:49 79.9 °F /  26.6 °C 56.7 °F /  13.7 °C 30.2in /  1021.0hPa North 2.9mph /  4.7km/h 4mph /  6.4km/h 45% 0in /  0.0mm 158 W/m2
18:54 80.1 °F /  26.7 °C 58.6 °F /  14.8 °C 30.2in /  1021.0hPa Calm   2mph /  3.2km/h 48% 0in /  0.0mm 135 W/m2
18:59 80.1 °F /  26.7 °C 58.6 °F /  14.8 °C 30.2in /  1021.0hPa NNE 0.9mph /  1.4km/h 1mph /  1.6km/h 48% 0in /  0.0mm 132 W/m2
19:04 79.9 °F /  26.6 °C 59 °F /  15 °C 30.2in /  1021.0hPa Calm   2mph /  3.2km/h 49% 0in /  0.0mm 105 W/m2
19:09 79.9 °F /  26.6 °C 60.1 °F /  15.6 °C 30.2in /  1021.0hPa SE 2mph /  3.2km/h 2mph /  3.2km/h 51% 0in /  0.0mm 77 W/m2
19:14 79.2 °F /  26.2 °C 59 °F /  15 °C 30.2in /  1021.0hPa Calm   2mph /  3.2km/h 50% 0in /  0.0mm 69 W/m2
19:19 78.6 °F /  25.9 °C 58.5 °F /  14.7 °C 30.2in /  1021.0hPa WSW 2mph /  3.2km/h 4mph /  6.4km/h 50% 0in /  0.0mm 62 W/m2
19:24 78.1 °F /  25.6 °C 57.9 °F /  14.4 °C 30.2in /  1021.0hPa West 2mph /  3.2km/h 3mph /  4.8km/h 50% 0in /  0.0mm 47 W/m2
19:29 77.7 °F /  25.4 °C 58.1 °F /  14.5 °C 30.2in /  1021.0hPa Calm   4mph /  6.4km/h 51% 0in /  0.0mm 39 W/m2
19:34 77.5 °F /  25.3 °C 58.5 °F /  14.7 °C 30.2in /  1021.0hPa Calm   2mph /  3.2km/h 52% 0in /  0.0mm 32 W/m2
19:39 77 °F /  25 °C 59 °F /  15 °C 30.2in /  1021.0hPa WSW 0.9mph /  1.4km/h 1mph /  1.6km/h 54% 0in /  0.0mm 25 W/m2
19:44 76.3 °F /  24.6 °C 60.4 °F /  15.8 °C 30.2in /  1021.0hPa WSW 2mph /  3.2km/h 2mph /  3.2km/h 58% 0in /  0.0mm 18 W/m2
19:49 75.6 °F /  24.2 °C 60.3 °F /  15.7 °C 30.2in /  1021.0hPa Calm   1mph /  1.6km/h 59% 0in /  0.0mm 12 W/m2
19:54 74.8 °F /  23.8 °C 60.1 °F /  15.6 °C 30.2in /  1021.0hPa Calm   2mph /  3.2km/h 60% 0in /  0.0mm 9 W/m2
19:59 73.9 °F /  23.3 °C 60.1 °F /  15.6 °C 30.2in /  1021.0hPa WSW 0.9mph /  1.4km/h 1mph /  1.6km/h 62% 0in /  0.0mm 5 W/m2
20:04 73.4 °F /  23 °C 60.1 °F /  15.6 °C 30.2in /  1021.0hPa WSW 0.9mph /  1.4km/h 1mph /  1.6km/h 63% 0in /  0.0mm 0 W/m2
20:09 72.9 °F /  22.7 °C 59.9 °F /  15.5 °C 30.2in /  1021.0hPa WSW 2mph /  3.2km/h 2mph /  3.2km/h 64% 0in /  0.0mm 0 W/m2
20:14 72.3 °F /  22.4 °C 59.5 °F /  15.3 °C 30.2in /  1021.3hPa Calm   1mph /  1.6km/h 64% 0in /  0.0mm 0 W/m2
20:19 71.8 °F /  22.1 °C 59.4 °F /  15.2 °C 30.2in /  1021.3hPa WSW 0.9mph /  1.4km/h 2mph /  3.2km/h 65% 0in /  0.0mm 0 W/m2
20:24 71.2 °F /  21.8 °C 59.4 °F /  15.2 °C 30.2in /  1021.3hPa WSW 0.9mph /  1.4km/h 2mph /  3.2km/h 66% 0in /  0.0mm 0 W/m2
20:29 70.9 °F /  21.6 °C 58.5 °F /  14.7 °C 30.2in /  1021.3hPa SSW 2.9mph /  4.7km/h 4mph /  6.4km/h 65% 0in /  0.0mm 0 W/m2
20:34 70.9 °F /  21.6 °C 59 °F /  15 °C 30.2in /  1021.3hPa Calm   3mph /  4.8km/h 66% 0in /  0.0mm 0 W/m2
20:39 70.7 °F /  21.5 °C 58.8 °F /  14.9 °C 30.2in /  1021.3hPa SSW 0.9mph /  1.4km/h 2mph /  3.2km/h 66% 0in /  0.0mm 0 W/m2
20:44 70.5 °F /  21.4 °C 59 °F /  15 °C 30.2in /  1021.3hPa SSW 0.9mph /  1.4km/h 1mph /  1.6km/h 67% 0in /  0.0mm 0 W/m2
20:49 70.3 °F /  21.3 °C 58.8 °F /  14.9 °C 30.2in /  1021.3hPa WSW 2mph /  3.2km/h 3mph /  4.8km/h 67% 0in /  0.0mm 0 W/m2
20:54 70.2 °F /  21.2 °C 58.6 °F /  14.8 °C 30.2in /  1021.3hPa WSW 0.9mph /  1.4km/h 2mph /  3.2km/h 67% 0in /  0.0mm 0 W/m2
20:59 70 °F /  21.1 °C 59 °F /  15 °C 30.2in /  1021.3hPa Calm   3mph /  4.8km/h 68% 0in /  0.0mm 0 W/m2
21:04 69.6 °F /  20.9 °C 58.1 °F /  14.5 °C 30.2in /  1021.7hPa Calm     67% 0in /  0.0mm 0 W/m2
21:09 69.4 °F /  20.8 °C 58.5 °F /  14.7 °C 30.2in /  1021.7hPa Calm     68% 0in /  0.0mm 0 W/m2
21:14 69.1 °F /  20.6 °C 58.1 °F /  14.5 °C 30.2in /  1021.7hPa Calm     68% 0in /  0.0mm 0 W/m2
21:19 68.7 °F /  20.4 °C 58.1 °F /  14.5 °C 30.2in /  1021.7hPa Calm     69% 0in /  0.0mm 0 W/m2
21:24 68.5 °F /  20.3 °C 58.3 °F /  14.6 °C 30.2in /  1021.7hPa Calm     70% 0in /  0.0mm 0 W/m2
21:29 68.5 °F /  20.3 °C 58.3 °F /  14.6 °C 30.2in /  1021.7hPa Calm     70% 0in /  0.0mm 0 W/m2
21:34 68.2 °F /  20.1 °C 58.1 °F /  14.5 °C 30.2in /  1021.7hPa Calm     70% 0in /  0.0mm 0 W/m2
21:39 67.8 °F /  19.9 °C 58.1 °F /  14.5 °C 30.2in /  1021.7hPa Calm     71% 0in /  0.0mm 0 W/m2
21:44 67.6 °F /  19.8 °C 58.3 °F /  14.6 °C 30.2in /  1021.7hPa Calm     72% 0in /  0.0mm 0 W/m2
21:49 67.5 °F /  19.7 °C 58.1 °F /  14.5 °C 30.2in /  1021.7hPa Calm     72% 0in /  0.0mm 0 W/m2
21:54 67.1 °F /  19.5 °C 58.1 °F /  14.5 °C 30.2in /  1021.7hPa Calm     73% 0in /  0.0mm 0 W/m2
21:59 66.7 °F /  19.3 °C 58.1 °F /  14.5 °C 30.2in /  1021.7hPa Calm     74% 0in /  0.0mm 0 W/m2
22:04 66.6 °F /  19.2 °C 58.1 °F /  14.5 °C 30.2in /  1021.7hPa Calm     74% 0in /  0.0mm 0 W/m2
22:09 66.4 °F /  19.1 °C 58.3 °F /  14.6 °C 30.2in /  1021.7hPa Calm     75% 0in /  0.0mm 0 W/m2
22:14 66 °F /  18.9 °C 57.9 °F /  14.4 °C 30.2in /  1022.0hPa Calm     75% 0in /  0.0mm 0 W/m2
22:19 66 °F /  18.9 °C 58.3 °F /  14.6 °C 30.2in /  1022.0hPa Calm     76% 0in /  0.0mm 0 W/m2
22:24 65.7 °F /  18.7 °C 58.3 °F /  14.6 °C 30.2in /  1022.0hPa Calm     77% 0in /  0.0mm 0 W/m2
22:29 65.5 °F /  18.6 °C 58.5 °F /  14.7 °C 30.2in /  1022.0hPa Calm     78% 0in /  0.0mm 0 W/m2
22:34 65.1 °F /  18.4 °C 58.1 °F /  14.5 °C 30.2in /  1022.0hPa Calm     78% 0in /  0.0mm 0 W/m2
22:39 65.1 °F /  18.4 °C 58.5 °F /  14.7 °C 30.2in /  1022.0hPa Calm     79% 0in /  0.0mm 0 W/m2
22:44 64.9 °F /  18.3 °C 58.3 °F /  14.6 °C 30.2in /  1022.0hPa Calm     79% 0in /  0.0mm 0 W/m2
22:49 64.8 °F /  18.2 °C 58.5 °F /  14.7 °C 30.2in /  1022.0hPa Calm     80% 0in /  0.0mm 0 W/m2
22:54 64.6 °F /  18.1 °C 58.3 °F /  14.6 °C 30.2in /  1022.0hPa Calm     80% 0in /  0.0mm 0 W/m2
22:59 64.4 °F /  18 °C 58.1 °F /  14.5 °C 30.2in /  1022.0hPa Calm     80% 0in /  0.0mm 0 W/m2
23:04 64.2 °F /  17.9 °C 58.3 °F /  14.6 °C 30.2in /  1022.0hPa Calm     81% 0in /  0.0mm 0 W/m2
23:09 64 °F /  17.8 °C 58.1 °F /  14.5 °C 30.2in /  1022.0hPa Calm     81% 0in /  0.0mm 0 W/m2
23:14 63.9 °F /  17.7 °C 57.9 °F /  14.4 °C 30.2in /  1022.0hPa Calm     81% 0in /  0.0mm 0 W/m2
23:19 63.9 °F /  17.7 °C 58.3 °F /  14.6 °C 30.2in /  1022.0hPa Calm     82% 0in /  0.0mm 0 W/m2
23:24 63.7 °F /  17.6 °C 58.1 °F /  14.5 °C 30.2in /  1022.0hPa Calm     82% 0in /  0.0mm 0 W/m2
23:29 63.7 °F /  17.6 °C 58.1 °F /  14.5 °C 30.2in /  1022.0hPa NNW 0.9mph /  1.4km/h 2mph /  3.2km/h 82% 0in /  0.0mm 0 W/m2
23:34 63.7 °F /  17.6 °C 58.1 °F /  14.5 °C 30.2in /  1022.0hPa Calm   1mph /  1.6km/h 82% 0in /  0.0mm 0 W/m2
23:39 63.5 °F /  17.5 °C 57.9 °F /  14.4 °C 30.2in /  1022.0hPa SW 0.9mph /  1.4km/h 1mph /  1.6km/h 82% 0in /  0.0mm 0 W/m2
23:44 63.7 °F /  17.6 °C 58.1 °F /  14.5 °C 30.2in /  1022.0hPa Calm     82% 0in /  0.0mm 0 W/m2
23:49 63.9 °F /  17.7 °C 57.9 °F /  14.4 °C 30.2in /  1022.4hPa Calm   1mph /  1.6km/h 81% 0in /  0.0mm 0 W/m2
23:54 64.2 °F /  17.9 °C 57.9 °F /  14.4 °C 30.2in /  1022.4hPa Calm   1mph /  1.6km/h 80% 0in /  0.0mm 0 W/m2
23:59 64.6 °F /  18.1 °C 58.3 °F /  14.6 °C 30.2in /  1022.4hPa SSW 2mph /  3.2km/h 2mph /  3.2km/h 80% 0in /  0.0mm 0 W/m2
Juneau County Weather
Compliments of Weather Underground - 2 mb